sensor_id;sensor_type;location;lat;lon;timestamp;P1;durP1;ratioP1;P2;durP2;ratioP2
25948;SDS011;13961;51.178;4.448;2023-05-07T00:00:00;14.93;;;10.80;;
25948;SDS011;13961;51.178;4.448;2023-05-07T00:02:26;16.55;;;11.52;;
25948;SDS011;13961;51.178;4.448;2023-05-07T00:04:51;18.13;;;11.70;;
25948;SDS011;13961;51.178;4.448;2023-05-07T00:07:17;18.48;;;12.02;;
25948;SDS011;13961;51.178;4.448;2023-05-07T00:09:43;20.58;;;12.35;;
25948;SDS011;13961;51.178;4.448;2023-05-07T00:12:09;17.35;;;12.35;;
25948;SDS011;13961;51.178;4.448;2023-05-07T00:14:35;17.73;;;12.65;;
25948;SDS011;13961;51.178;4.448;2023-05-07T00:17:02;15.90;;;11.80;;
25948;SDS011;13961;51.178;4.448;2023-05-07T00:19:28;19.52;;;12.32;;
25948;SDS011;13961;51.178;4.448;2023-05-07T00:21:53;18.63;;;12.52;;
25948;SDS011;13961;51.178;4.448;2023-05-07T00:24:20;20.08;;;11.88;;
25948;SDS011;13961;51.178;4.448;2023-05-07T00:26:47;19.48;;;11.77;;
25948;SDS011;13961;51.178;4.448;2023-05-07T00:29:13;19.95;;;11.70;;
25948;SDS011;13961;51.178;4.448;2023-05-07T00:31:39;16.50;;;11.90;;
25948;SDS011;13961;51.178;4.448;2023-05-07T00:34:04;18.95;;;11.90;;
25948;SDS011;13961;51.178;4.448;2023-05-07T00:36:31;17.23;;;11.32;;
25948;SDS011;13961;51.178;4.448;2023-05-07T00:38:58;16.52;;;12.20;;
25948;SDS011;13961;51.178;4.448;2023-05-07T00:41:26;19.10;;;12.23;;
25948;SDS011;13961;51.178;4.448;2023-05-07T00:43:52;20.00;;;11.80;;
25948;SDS011;13961;51.178;4.448;2023-05-07T00:46:19;19.90;;;12.50;;
25948;SDS011;13961;51.178;4.448;2023-05-07T00:48:47;17.35;;;12.45;;
25948;SDS011;13961;51.178;4.448;2023-05-07T00:51:14;17.05;;;12.32;;
25948;SDS011;13961;51.178;4.448;2023-05-07T00:53:39;16.58;;;12.32;;
25948;SDS011;13961;51.178;4.448;2023-05-07T00:56:05;20.67;;;13.30;;
25948;SDS011;13961;51.178;4.448;2023-05-07T00:58:32;19.65;;;12.93;;
25948;SDS011;13961;51.178;4.448;2023-05-07T01:00:58;16.33;;;11.98;;
25948;SDS011;13961;51.178;4.448;2023-05-07T01:03:24;15.60;;;12.77;;
25948;SDS011;13961;51.178;4.448;2023-05-07T01:05:51;17.42;;;12.45;;
25948;SDS011;13961;51.178;4.448;2023-05-07T01:08:18;20.95;;;12.85;;
25948;SDS011;13961;51.178;4.448;2023-05-07T01:10:45;19.10;;;13.15;;
25948;SDS011;13961;51.178;4.448;2023-05-07T01:13:12;20.52;;;13.63;;
25948;SDS011;13961;51.178;4.448;2023-05-07T01:15:38;20.83;;;13.05;;
25948;SDS011;13961;51.178;4.448;2023-05-07T01:18:07;16.98;;;13.15;;
25948;SDS011;13961;51.178;4.448;2023-05-07T01:20:32;20.38;;;13.18;;
25948;SDS011;13961;51.178;4.448;2023-05-07T01:22:58;19.35;;;13.15;;
25948;SDS011;13961;51.178;4.448;2023-05-07T01:25:27;21.83;;;12.75;;
25948;SDS011;13961;51.178;4.448;2023-05-07T01:27:53;19.25;;;13.25;;
25948;SDS011;13961;51.178;4.448;2023-05-07T01:30:19;19.10;;;13.15;;
25948;SDS011;13961;51.178;4.448;2023-05-07T01:32:56;16.60;;;12.55;;
25948;SDS011;13961;51.178;4.448;2023-05-07T01:35:30;17.77;;;12.70;;
25948;SDS011;13961;51.178;4.448;2023-05-07T01:38:01;21.02;;;12.50;;
25948;SDS011;13961;51.178;4.448;2023-05-07T01:40:29;21.70;;;13.05;;
25948;SDS011;13961;51.178;4.448;2023-05-07T01:42:56;20.85;;;12.95;;
25948;SDS011;13961;51.178;4.448;2023-05-07T01:45:22;19.92;;;13.45;;
25948;SDS011;13961;51.178;4.448;2023-05-07T01:47:49;20.98;;;12.90;;
25948;SDS011;13961;51.178;4.448;2023-05-07T01:50:17;16.98;;;12.90;;
25948;SDS011;13961;51.178;4.448;2023-05-07T01:52:44;19.08;;;13.25;;
25948;SDS011;13961;51.178;4.448;2023-05-07T01:55:10;20.27;;;13.50;;
25948;SDS011;13961;51.178;4.448;2023-05-07T01:57:36;19.42;;;12.95;;
25948;SDS011;13961;51.178;4.448;2023-05-07T02:00:02;18.30;;;13.13;;
25948;SDS011;13961;51.178;4.448;2023-05-07T02:02:31;19.17;;;13.55;;
25948;SDS011;13961;51.178;4.448;2023-05-07T02:04:56;18.02;;;13.13;;
25948;SDS011;13961;51.178;4.448;2023-05-07T02:07:22;16.77;;;12.88;;
25948;SDS011;13961;51.178;4.448;2023-05-07T02:09:48;18.23;;;13.60;;
25948;SDS011;13961;51.178;4.448;2023-05-07T02:12:14;21.23;;;13.30;;
25948;SDS011;13961;51.178;4.448;2023-05-07T02:14:39;25.00;;;13.88;;
25948;SDS011;13961;51.178;4.448;2023-05-07T02:17:07;21.15;;;14.48;;
25948;SDS011;13961;51.178;4.448;2023-05-07T02:22:02;19.13;;;13.05;;
25948;SDS011;13961;51.178;4.448;2023-05-07T02:24:27;23.17;;;14.68;;
25948;SDS011;13961;51.178;4.448;2023-05-07T02:26:53;19.90;;;14.68;;
25948;SDS011;13961;51.178;4.448;2023-05-07T02:29:19;18.90;;;13.73;;
25948;SDS011;13961;51.178;4.448;2023-05-07T02:31:44;21.17;;;13.65;;
25948;SDS011;13961;51.178;4.448;2023-05-07T02:34:10;20.50;;;14.73;;
25948;SDS011;13961;51.178;4.448;2023-05-07T02:36:36;25.08;;;15.05;;
25948;SDS011;13961;51.178;4.448;2023-05-07T02:39:02;19.80;;;14.57;;
25948;SDS011;13961;51.178;4.448;2023-05-07T02:41:28;23.13;;;14.95;;
25948;SDS011;13961;51.178;4.448;2023-05-07T02:43:54;20.63;;;14.27;;
25948;SDS011;13961;51.178;4.448;2023-05-07T02:46:20;19.52;;;14.20;;
25948;SDS011;13961;51.178;4.448;2023-05-07T02:48:46;19.63;;;14.57;;
25948;SDS011;13961;51.178;4.448;2023-05-07T02:51:12;23.23;;;14.90;;
25948;SDS011;13961;51.178;4.448;2023-05-07T02:53:37;21.42;;;14.10;;
25948;SDS011;13961;51.178;4.448;2023-05-07T02:56:04;19.58;;;14.18;;
25948;SDS011;13961;51.178;4.448;2023-05-07T02:58:32;22.45;;;13.90;;
25948;SDS011;13961;51.178;4.448;2023-05-07T03:00:58;16.55;;;13.60;;
25948;SDS011;13961;51.178;4.448;2023-05-07T03:03:24;21.58;;;14.13;;
25948;SDS011;13961;51.178;4.448;2023-05-07T03:05:51;17.02;;;13.00;;
25948;SDS011;13961;51.178;4.448;2023-05-07T03:08:17;16.30;;;13.25;;
25948;SDS011;13961;51.178;4.448;2023-05-07T03:10:45;16.23;;;13.02;;
25948;SDS011;13961;51.178;4.448;2023-05-07T03:13:10;17.75;;;13.23;;
25948;SDS011;13961;51.178;4.448;2023-05-07T03:15:36;19.27;;;14.07;;
25948;SDS011;13961;51.178;4.448;2023-05-07T03:18:02;18.80;;;13.48;;
25948;SDS011;13961;51.178;4.448;2023-05-07T03:20:29;20.02;;;13.52;;
25948;SDS011;13961;51.178;4.448;2023-05-07T03:22:55;19.63;;;13.10;;
25948;SDS011;13961;51.178;4.448;2023-05-07T03:25:20;16.65;;;13.45;;
25948;SDS011;13961;51.178;4.448;2023-05-07T03:27:46;17.25;;;13.20;;
25948;SDS011;13961;51.178;4.448;2023-05-07T03:30:12;19.13;;;12.85;;
25948;SDS011;13961;51.178;4.448;2023-05-07T03:32:38;18.60;;;13.10;;
25948;SDS011;13961;51.178;4.448;2023-05-07T03:35:04;16.45;;;13.13;;
25948;SDS011;13961;51.178;4.448;2023-05-07T03:37:30;18.70;;;12.65;;
25948;SDS011;13961;51.178;4.448;2023-05-07T03:39:57;16.13;;;13.05;;
25948;SDS011;13961;51.178;4.448;2023-05-07T03:42:22;15.95;;;13.35;;
25948;SDS011;13961;51.178;4.448;2023-05-07T03:44:48;17.90;;;12.65;;
25948;SDS011;13961;51.178;4.448;2023-05-07T03:47:15;16.90;;;12.73;;
25948;SDS011;13961;51.178;4.448;2023-05-07T03:49:41;18.35;;;12.93;;
25948;SDS011;13961;51.178;4.448;2023-05-07T03:52:06;18.75;;;13.35;;
25948;SDS011;13961;51.178;4.448;2023-05-07T03:54:32;17.90;;;12.98;;
25948;SDS011;13961;51.178;4.448;2023-05-07T03:56:58;19.08;;;12.85;;
25948;SDS011;13961;51.178;4.448;2023-05-07T03:59:24;19.73;;;13.23;;
25948;SDS011;13961;51.178;4.448;2023-05-07T04:01:49;19.33;;;13.30;;
25948;SDS011;13961;51.178;4.448;2023-05-07T04:04:15;18.55;;;13.93;;
25948;SDS011;13961;51.178;4.448;2023-05-07T04:06:41;19.73;;;13.75;;
25948;SDS011;13961;51.178;4.448;2023-05-07T04:09:09;18.20;;;12.57;;
25948;SDS011;13961;51.178;4.448;2023-05-07T04:11:35;18.25;;;13.57;;
25948;SDS011;13961;51.178;4.448;2023-05-07T04:14:01;18.02;;;13.43;;
25948;SDS011;13961;51.178;4.448;2023-05-07T04:16:27;18.20;;;14.02;;
25948;SDS011;13961;51.178;4.448;2023-05-07T04:18:52;20.20;;;13.75;;
25948;SDS011;13961;51.178;4.448;2023-05-07T04:21:18;19.73;;;14.10;;
25948;SDS011;13961;51.178;4.448;2023-05-07T04:23:49;20.20;;;14.88;;
25948;SDS011;13961;51.178;4.448;2023-05-07T04:26:15;21.33;;;14.20;;
25948;SDS011;13961;51.178;4.448;2023-05-07T04:28:41;23.73;;;14.77;;
25948;SDS011;13961;51.178;4.448;2023-05-07T04:31:07;19.48;;;14.82;;
25948;SDS011;13961;51.178;4.448;2023-05-07T04:33:33;19.92;;;14.65;;
25948;SDS011;13961;51.178;4.448;2023-05-07T04:36:02;21.27;;;14.60;;
25948;SDS011;13961;51.178;4.448;2023-05-07T04:38:32;21.00;;;14.27;;
25948;SDS011;13961;51.178;4.448;2023-05-07T04:41:04;16.90;;;13.52;;
25948;SDS011;13961;51.178;4.448;2023-05-07T04:45:56;19.55;;;14.70;;
25948;SDS011;13961;51.178;4.448;2023-05-07T04:48:22;16.80;;;13.57;;
25948;SDS011;13961;51.178;4.448;2023-05-07T04:50:48;18.90;;;14.15;;
25948;SDS011;13961;51.178;4.448;2023-05-07T04:53:16;20.13;;;13.57;;
25948;SDS011;13961;51.178;4.448;2023-05-07T04:55:42;20.02;;;13.50;;
25948;SDS011;13961;51.178;4.448;2023-05-07T04:58:09;17.75;;;13.60;;
25948;SDS011;13961;51.178;4.448;2023-05-07T05:00:35;18.73;;;14.02;;
25948;SDS011;13961;51.178;4.448;2023-05-07T05:03:01;21.13;;;13.70;;
25948;SDS011;13961;51.178;4.448;2023-05-07T05:05:26;20.92;;;13.68;;
25948;SDS011;13961;51.178;4.448;2023-05-07T05:07:52;18.17;;;13.30;;
25948;SDS011;13961;51.178;4.448;2023-05-07T05:10:19;20.02;;;13.68;;
25948;SDS011;13961;51.178;4.448;2023-05-07T05:12:44;17.42;;;13.10;;
25948;SDS011;13961;51.178;4.448;2023-05-07T05:15:13;19.50;;;14.05;;
25948;SDS011;13961;51.178;4.448;2023-05-07T05:17:39;20.30;;;13.27;;
25948;SDS011;13961;51.178;4.448;2023-05-07T05:20:05;19.67;;;14.52;;
25948;SDS011;13961;51.178;4.448;2023-05-07T05:22:32;18.85;;;12.93;;
25948;SDS011;13961;51.178;4.448;2023-05-07T05:24:58;18.52;;;13.23;;
25948;SDS011;13961;51.178;4.448;2023-05-07T05:27:24;17.45;;;12.95;;
25948;SDS011;13961;51.178;4.448;2023-05-07T05:29:49;18.67;;;13.18;;
25948;SDS011;13961;51.178;4.448;2023-05-07T05:32:15;16.95;;;13.18;;
25948;SDS011;13961;51.178;4.448;2023-05-07T05:34:41;20.00;;;13.48;;
25948;SDS011;13961;51.178;4.448;2023-05-07T05:37:06;17.52;;;13.57;;
25948;SDS011;13961;51.178;4.448;2023-05-07T05:39:32;16.40;;;12.75;;
25948;SDS011;13961;51.178;4.448;2023-05-07T05:41:58;14.80;;;11.82;;
25948;SDS011;13961;51.178;4.448;2023-05-07T05:44:23;17.42;;;12.60;;
25948;SDS011;13961;51.178;4.448;2023-05-07T05:46:50;15.98;;;12.45;;
25948;SDS011;13961;51.178;4.448;2023-05-07T05:49:16;16.25;;;12.75;;
25948;SDS011;13961;51.178;4.448;2023-05-07T05:51:42;18.52;;;13.27;;
25948;SDS011;13961;51.178;4.448;2023-05-07T05:54:08;18.45;;;11.63;;
25948;SDS011;13961;51.178;4.448;2023-05-07T05:56:34;18.27;;;12.50;;
25948;SDS011;13961;51.178;4.448;2023-05-07T05:59:01;16.15;;;12.77;;
25948;SDS011;13961;51.178;4.448;2023-05-07T06:01:26;18.88;;;11.98;;
25948;SDS011;13961;51.178;4.448;2023-05-07T06:03:52;15.90;;;12.38;;
25948;SDS011;13961;51.178;4.448;2023-05-07T06:06:19;16.15;;;12.27;;
25948;SDS011;13961;51.178;4.448;2023-05-07T06:08:45;16.35;;;12.05;;
25948;SDS011;13961;51.178;4.448;2023-05-07T06:11:11;15.85;;;11.52;;
25948;SDS011;13961;51.178;4.448;2023-05-07T06:13:40;15.88;;;11.88;;
25948;SDS011;13961;51.178;4.448;2023-05-07T06:16:06;16.20;;;12.32;;
25948;SDS011;13961;51.178;4.448;2023-05-07T06:18:32;15.02;;;12.15;;
25948;SDS011;13961;51.178;4.448;2023-05-07T06:20:57;14.35;;;11.52;;
25948;SDS011;13961;51.178;4.448;2023-05-07T06:23:23;17.85;;;12.50;;
25948;SDS011;13961;51.178;4.448;2023-05-07T06:25:49;15.48;;;12.00;;
25948;SDS011;13961;51.178;4.448;2023-05-07T06:28:16;17.33;;;11.48;;
25948;SDS011;13961;51.178;4.448;2023-05-07T06:30:42;15.73;;;12.00;;
25948;SDS011;13961;51.178;4.448;2023-05-07T06:33:08;17.55;;;12.73;;
25948;SDS011;13961;51.178;4.448;2023-05-07T06:35:34;15.32;;;11.77;;
25948;SDS011;13961;51.178;4.448;2023-05-07T06:38:00;15.00;;;12.07;;
25948;SDS011;13961;51.178;4.448;2023-05-07T06:40:27;15.93;;;11.40;;
25948;SDS011;13961;51.178;4.448;2023-05-07T06:42:52;16.13;;;11.82;;
25948;SDS011;13961;51.178;4.448;2023-05-07T06:45:19;14.65;;;11.65;;
25948;SDS011;13961;51.178;4.448;2023-05-07T06:47:45;14.57;;;11.38;;
25948;SDS011;13961;51.178;4.448;2023-05-07T06:50:11;18.92;;;11.27;;
25948;SDS011;13961;51.178;4.448;2023-05-07T06:52:37;16.35;;;11.20;;
25948;SDS011;13961;51.178;4.448;2023-05-07T06:55:03;15.73;;;12.18;;
25948;SDS011;13961;51.178;4.448;2023-05-07T06:57:29;16.35;;;11.48;;
25948;SDS011;13961;51.178;4.448;2023-05-07T06:59:54;16.98;;;12.18;;
25948;SDS011;13961;51.178;4.448;2023-05-07T07:02:21;13.68;;;11.40;;
25948;SDS011;13961;51.178;4.448;2023-05-07T07:04:46;16.40;;;11.50;;
25948;SDS011;13961;51.178;4.448;2023-05-07T07:07:12;14.25;;;11.80;;
25948;SDS011;13961;51.178;4.448;2023-05-07T07:09:38;16.67;;;11.73;;
25948;SDS011;13961;51.178;4.448;2023-05-07T07:12:07;15.18;;;11.77;;
25948;SDS011;13961;51.178;4.448;2023-05-07T07:14:33;17.75;;;12.60;;
25948;SDS011;13961;51.178;4.448;2023-05-07T07:17:01;16.70;;;12.52;;
25948;SDS011;13961;51.178;4.448;2023-05-07T07:19:27;14.38;;;12.02;;
25948;SDS011;13961;51.178;4.448;2023-05-07T07:21:52;16.02;;;12.60;;
25948;SDS011;13961;51.178;4.448;2023-05-07T07:24:18;16.73;;;12.07;;
25948;SDS011;13961;51.178;4.448;2023-05-07T07:26:46;14.88;;;11.85;;
25948;SDS011;13961;51.178;4.448;2023-05-07T07:29:12;16.60;;;12.48;;
25948;SDS011;13961;51.178;4.448;2023-05-07T07:31:38;16.15;;;12.27;;
25948;SDS011;13961;51.178;4.448;2023-05-07T07:34:04;15.30;;;12.35;;
25948;SDS011;13961;51.178;4.448;2023-05-07T07:36:29;18.77;;;12.95;;
25948;SDS011;13961;51.178;4.448;2023-05-07T07:38:55;17.30;;;12.50;;
25948;SDS011;13961;51.178;4.448;2023-05-07T07:41:22;17.23;;;12.32;;
25948;SDS011;13961;51.178;4.448;2023-05-07T07:43:47;17.17;;;11.75;;
25948;SDS011;13961;51.178;4.448;2023-05-07T07:46:13;14.27;;;11.43;;
25948;SDS011;13961;51.178;4.448;2023-05-07T07:48:39;15.43;;;9.63;;
25948;SDS011;13961;51.178;4.448;2023-05-07T07:51:05;15.15;;;10.40;;
25948;SDS011;13961;51.178;4.448;2023-05-07T07:53:30;15.20;;;10.40;;
25948;SDS011;13961;51.178;4.448;2023-05-07T07:55:56;13.52;;;10.05;;
25948;SDS011;13961;51.178;4.448;2023-05-07T07:58:22;12.75;;;10.02;;
25948;SDS011;13961;51.178;4.448;2023-05-07T08:00:49;15.10;;;9.90;;
25948;SDS011;13961;51.178;4.448;2023-05-07T08:03:16;13.93;;;9.60;;
25948;SDS011;13961;51.178;4.448;2023-05-07T08:05:42;14.93;;;9.63;;
25948;SDS011;13961;51.178;4.448;2023-05-07T08:08:08;14.88;;;9.45;;
25948;SDS011;13961;51.178;4.448;2023-05-07T08:10:34;12.43;;;9.23;;
25948;SDS011;13961;51.178;4.448;2023-05-07T08:13:03;11.75;;;8.25;;
25948;SDS011;13961;51.178;4.448;2023-05-07T08:15:29;12.90;;;8.70;;
25948;SDS011;13961;51.178;4.448;2023-05-07T08:17:55;10.60;;;7.38;;
25948;SDS011;13961;51.178;4.448;2023-05-07T08:20:22;9.80;;;7.50;;
25948;SDS011;13961;51.178;4.448;2023-05-07T08:22:48;11.63;;;7.40;;
25948;SDS011;13961;51.178;4.448;2023-05-07T08:25:14;11.10;;;7.60;;
25948;SDS011;13961;51.178;4.448;2023-05-07T08:27:40;13.93;;;7.88;;
25948;SDS011;13961;51.178;4.448;2023-05-07T08:30:06;14.45;;;8.45;;
25948;SDS011;13961;51.178;4.448;2023-05-07T08:32:32;11.63;;;7.78;;
25948;SDS011;13961;51.178;4.448;2023-05-07T08:34:57;12.70;;;8.43;;
25948;SDS011;13961;51.178;4.448;2023-05-07T08:37:23;12.50;;;8.43;;
25948;SDS011;13961;51.178;4.448;2023-05-07T08:39:49;13.00;;;8.75;;
25948;SDS011;13961;51.178;4.448;2023-05-07T08:42:15;15.43;;;8.70;;
25948;SDS011;13961;51.178;4.448;2023-05-07T08:44:43;13.57;;;8.75;;
25948;SDS011;13961;51.178;4.448;2023-05-07T08:47:12;13.77;;;8.90;;
25948;SDS011;13961;51.178;4.448;2023-05-07T08:49:37;11.73;;;8.35;;
25948;SDS011;13961;51.178;4.448;2023-05-07T08:52:03;13.20;;;8.55;;
25948;SDS011;13961;51.178;4.448;2023-05-07T08:54:30;11.70;;;8.73;;
25948;SDS011;13961;51.178;4.448;2023-05-07T08:56:57;14.10;;;8.85;;
25948;SDS011;13961;51.178;4.448;2023-05-07T08:59:23;12.20;;;7.25;;
25948;SDS011;13961;51.178;4.448;2023-05-07T09:01:48;11.57;;;7.88;;
25948;SDS011;13961;51.178;4.448;2023-05-07T09:04:14;13.07;;;8.10;;
25948;SDS011;13961;51.178;4.448;2023-05-07T09:06:40;12.43;;;7.28;;
25948;SDS011;13961;51.178;4.448;2023-05-07T09:09:07;12.35;;;8.00;;
25948;SDS011;13961;51.178;4.448;2023-05-07T09:11:33;12.55;;;7.35;;
25948;SDS011;13961;51.178;4.448;2023-05-07T09:13:59;14.63;;;7.50;;
25948;SDS011;13961;51.178;4.448;2023-05-07T09:16:27;12.02;;;7.53;;
25948;SDS011;13961;51.178;4.448;2023-05-07T09:18:57;11.95;;;7.43;;
25948;SDS011;13961;51.178;4.448;2023-05-07T09:21:23;11.13;;;6.80;;
25948;SDS011;13961;51.178;4.448;2023-05-07T09:23:53;12.48;;;7.45;;
25948;SDS011;13961;51.178;4.448;2023-05-07T09:26:23;9.85;;;6.65;;
25948;SDS011;13961;51.178;4.448;2023-05-07T09:28:50;11.82;;;6.70;;
25948;SDS011;13961;51.178;4.448;2023-05-07T09:31:16;10.70;;;6.40;;
25948;SDS011;13961;51.178;4.448;2023-05-07T09:33:41;9.73;;;6.30;;
25948;SDS011;13961;51.178;4.448;2023-05-07T09:36:08;10.88;;;6.90;;
25948;SDS011;13961;51.178;4.448;2023-05-07T09:38:36;11.00;;;7.22;;
25948;SDS011;13961;51.178;4.448;2023-05-07T09:41:06;12.93;;;6.63;;
25948;SDS011;13961;51.178;4.448;2023-05-07T09:43:34;11.90;;;7.40;;
25948;SDS011;13961;51.178;4.448;2023-05-07T09:46:06;8.73;;;6.72;;
25948;SDS011;13961;51.178;4.448;2023-05-07T09:48:37;11.07;;;6.20;;
25948;SDS011;13961;51.178;4.448;2023-05-07T09:51:06;9.88;;;6.53;;
25948;SDS011;13961;51.178;4.448;2023-05-07T09:54:01;14.57;;;6.45;;
25948;SDS011;13961;51.178;4.448;2023-05-07T09:56:29;10.63;;;6.63;;
25948;SDS011;13961;51.178;4.448;2023-05-07T09:58:57;14.30;;;6.55;;
25948;SDS011;13961;51.178;4.448;2023-05-07T10:01:25;10.32;;;6.25;;
25948;SDS011;13961;51.178;4.448;2023-05-07T10:03:52;13.85;;;6.93;;
25948;SDS011;13961;51.178;4.448;2023-05-07T10:06:19;11.43;;;7.03;;
25948;SDS011;13961;51.178;4.448;2023-05-07T10:08:48;11.40;;;5.75;;
25948;SDS011;13961;51.178;4.448;2023-05-07T10:11:15;9.40;;;4.85;;
25948;SDS011;13961;51.178;4.448;2023-05-07T10:13:42;9.45;;;4.30;;
25948;SDS011;13961;51.178;4.448;2023-05-07T10:16:08;9.52;;;4.65;;
25948;SDS011;13961;51.178;4.448;2023-05-07T10:18:34;10.52;;;4.50;;
25948;SDS011;13961;51.178;4.448;2023-05-07T10:21:06;9.82;;;4.00;;
25948;SDS011;13961;51.178;4.448;2023-05-07T10:23:34;7.82;;;3.72;;
25948;SDS011;13961;51.178;4.448;2023-05-07T10:26:02;7.35;;;4.10;;
25948;SDS011;13961;51.178;4.448;2023-05-07T10:28:30;9.25;;;4.65;;
25948;SDS011;13961;51.178;4.448;2023-05-07T10:31:11;7.80;;;4.43;;
25948;SDS011;13961;51.178;4.448;2023-05-07T10:33:58;9.75;;;5.57;;
25948;SDS011;13961;51.178;4.448;2023-05-07T10:36:26;10.95;;;5.63;;
25948;SDS011;13961;51.178;4.448;2023-05-07T10:38:52;13.25;;;6.30;;
25948;SDS011;13961;51.178;4.448;2023-05-07T10:41:19;10.20;;;5.40;;
25948;SDS011;13961;51.178;4.448;2023-05-07T10:43:46;10.25;;;5.72;;
25948;SDS011;13961;51.178;4.448;2023-05-07T10:46:15;12.10;;;5.20;;
25948;SDS011;13961;51.178;4.448;2023-05-07T10:51:27;9.38;;;4.60;;
25948;SDS011;13961;51.178;4.448;2023-05-07T10:56:38;5.82;;;4.43;;
25948;SDS011;13961;51.178;4.448;2023-05-07T11:01:50;8.63;;;5.18;;
25948;SDS011;13961;51.178;4.448;2023-05-07T11:04:28;8.57;;;5.10;;
25948;SDS011;13961;51.178;4.448;2023-05-07T11:15:08;6.50;;;4.60;;
25948;SDS011;13961;51.178;4.448;2023-05-07T11:17:35;6.03;;;3.90;;
25948;SDS011;13961;51.178;4.448;2023-05-07T11:20:21;7.95;;;4.68;;
25948;SDS011;13961;51.178;4.448;2023-05-07T11:26:00;6.82;;;4.20;;
25948;SDS011;13961;51.178;4.448;2023-05-07T11:28:36;8.30;;;3.92;;
25948;SDS011;13961;51.178;4.448;2023-05-07T11:31:06;7.00;;;4.30;;
25948;SDS011;13961;51.178;4.448;2023-05-07T11:33:33;6.93;;;4.28;;
25948;SDS011;13961;51.178;4.448;2023-05-07T11:35:59;7.70;;;4.47;;
25948;SDS011;13961;51.178;4.448;2023-05-07T11:38:26;6.80;;;3.65;;
25948;SDS011;13961;51.178;4.448;2023-05-07T11:40:55;6.28;;;4.22;;
25948;SDS011;13961;51.178;4.448;2023-05-07T11:43:22;5.68;;;3.85;;
25948;SDS011;13961;51.178;4.448;2023-05-07T11:45:48;7.05;;;4.10;;
25948;SDS011;13961;51.178;4.448;2023-05-07T11:48:15;7.90;;;3.75;;
25948;SDS011;13961;51.178;4.448;2023-05-07T11:53:20;6.13;;;2.80;;
25948;SDS011;13961;51.178;4.448;2023-05-07T11:55:52;5.38;;;2.03;;
25948;SDS011;13961;51.178;4.448;2023-05-07T11:58:21;6.28;;;2.70;;
25948;SDS011;13961;51.178;4.448;2023-05-07T12:00:52;6.03;;;2.83;;
25948;SDS011;13961;51.178;4.448;2023-05-07T12:03:19;6.07;;;2.67;;
25948;SDS011;13961;51.178;4.448;2023-05-07T12:05:45;4.68;;;2.80;;
25948;SDS011;13961;51.178;4.448;2023-05-07T12:08:15;4.28;;;2.72;;
25948;SDS011;13961;51.178;4.448;2023-05-07T12:10:42;4.60;;;3.00;;
25948;SDS011;13961;51.178;4.448;2023-05-07T12:13:16;8.50;;;3.85;;
25948;SDS011;13961;51.178;4.448;2023-05-07T12:15:50;6.85;;;3.75;;
25948;SDS011;13961;51.178;4.448;2023-05-07T12:18:20;7.63;;;4.28;;
25948;SDS011;13961;51.178;4.448;2023-05-07T12:20:46;4.72;;;4.22;;
25948;SDS011;13961;51.178;4.448;2023-05-07T12:23:13;4.80;;;3.58;;
25948;SDS011;13961;51.178;4.448;2023-05-07T12:25:39;8.68;;;4.60;;
25948;SDS011;13961;51.178;4.448;2023-05-07T12:28:08;7.80;;;3.92;;
25948;SDS011;13961;51.178;4.448;2023-05-07T12:30:38;8.95;;;4.53;;
25948;SDS011;13961;51.178;4.448;2023-05-07T12:33:05;8.25;;;4.55;;
25948;SDS011;13961;51.178;4.448;2023-05-07T12:35:32;4.68;;;4.18;;
25948;SDS011;13961;51.178;4.448;2023-05-07T12:40:39;8.13;;;4.28;;
25948;SDS011;13961;51.178;4.448;2023-05-07T12:43:26;8.55;;;4.22;;
25948;SDS011;13961;51.178;4.448;2023-05-07T12:45:56;9.52;;;4.25;;
25948;SDS011;13961;51.178;4.448;2023-05-07T12:48:24;9.00;;;4.40;;
25948;SDS011;13961;51.178;4.448;2023-05-07T12:50:55;4.93;;;3.60;;
25948;SDS011;13961;51.178;4.448;2023-05-07T12:53:22;5.43;;;3.78;;
25948;SDS011;13961;51.178;4.448;2023-05-07T12:55:50;5.50;;;3.28;;
25948;SDS011;13961;51.178;4.448;2023-05-07T13:00:49;6.25;;;3.05;;
25948;SDS011;13961;51.178;4.448;2023-05-07T13:03:29;4.53;;;3.10;;
25948;SDS011;13961;51.178;4.448;2023-05-07T13:06:00;7.30;;;3.70;;
25948;SDS011;13961;51.178;4.448;2023-05-07T13:08:38;7.00;;;3.28;;
25948;SDS011;13961;51.178;4.448;2023-05-07T13:11:08;6.53;;;3.20;;
25948;SDS011;13961;51.178;4.448;2023-05-07T13:13:36;5.00;;;3.30;;
25948;SDS011;13961;51.178;4.448;2023-05-07T13:16:04;5.70;;;3.33;;
25948;SDS011;13961;51.178;4.448;2023-05-07T13:18:31;7.32;;;3.55;;
25948;SDS011;13961;51.178;4.448;2023-05-07T13:20:58;5.35;;;3.40;;
25948;SDS011;13961;51.178;4.448;2023-05-07T13:23:25;6.55;;;3.58;;
25948;SDS011;13961;51.178;4.448;2023-05-07T13:25:51;5.32;;;3.28;;
25948;SDS011;13961;51.178;4.448;2023-05-07T13:28:20;4.95;;;3.22;;
25948;SDS011;13961;51.178;4.448;2023-05-07T13:30:46;5.30;;;3.35;;
25948;SDS011;13961;51.178;4.448;2023-05-07T13:33:12;4.88;;;3.17;;
25948;SDS011;13961;51.178;4.448;2023-05-07T13:35:38;7.00;;;3.10;;
25948;SDS011;13961;51.178;4.448;2023-05-07T13:38:04;5.88;;;3.47;;
25948;SDS011;13961;51.178;4.448;2023-05-07T13:40:30;4.97;;;2.53;;
25948;SDS011;13961;51.178;4.448;2023-05-07T13:42:59;6.75;;;2.58;;
25948;SDS011;13961;51.178;4.448;2023-05-07T13:45:27;4.13;;;2.50;;
25948;SDS011;13961;51.178;4.448;2023-05-07T13:47:56;6.20;;;2.50;;
25948;SDS011;13961;51.178;4.448;2023-05-07T13:50:22;4.43;;;2.55;;
25948;SDS011;13961;51.178;4.448;2023-05-07T13:52:48;3.80;;;2.50;;
25948;SDS011;13961;51.178;4.448;2023-05-07T13:55:17;4.18;;;2.10;;
25948;SDS011;13961;51.178;4.448;2023-05-07T13:57:43;6.65;;;2.47;;
25948;SDS011;13961;51.178;4.448;2023-05-07T14:00:09;3.58;;;2.55;;
25948;SDS011;13961;51.178;4.448;2023-05-07T14:02:36;3.58;;;2.40;;
25948;SDS011;13961;51.178;4.448;2023-05-07T14:05:02;5.95;;;2.50;;
25948;SDS011;13961;51.178;4.448;2023-05-07T14:07:28;4.35;;;2.47;;
25948;SDS011;13961;51.178;4.448;2023-05-07T14:09:54;2.63;;;2.30;;
25948;SDS011;13961;51.178;4.448;2023-05-07T14:12:20;4.72;;;2.85;;
25948;SDS011;13961;51.178;4.448;2023-05-07T14:14:45;4.97;;;2.88;;
25948;SDS011;13961;51.178;4.448;2023-05-07T14:17:12;2.90;;;2.60;;
25948;SDS011;13961;51.178;4.448;2023-05-07T14:19:38;3.40;;;2.55;;
25948;SDS011;13961;51.178;4.448;2023-05-07T14:22:03;4.63;;;2.67;;
25948;SDS011;13961;51.178;4.448;2023-05-07T14:24:29;5.28;;;2.70;;
25948;SDS011;13961;51.178;4.448;2023-05-07T14:26:55;5.70;;;2.92;;
25948;SDS011;13961;51.178;4.448;2023-05-07T14:29:21;3.83;;;2.90;;
25948;SDS011;13961;51.178;4.448;2023-05-07T14:31:47;5.45;;;2.50;;
25948;SDS011;13961;51.178;4.448;2023-05-07T14:34:13;4.35;;;2.35;;
25948;SDS011;13961;51.178;4.448;2023-05-07T14:36:39;5.45;;;2.55;;
25948;SDS011;13961;51.178;4.448;2023-05-07T14:39:05;3.65;;;2.50;;
25948;SDS011;13961;51.178;4.448;2023-05-07T14:41:31;7.93;;;2.53;;
25948;SDS011;13961;51.178;4.448;2023-05-07T14:43:58;6.28;;;2.67;;
25948;SDS011;13961;51.178;4.448;2023-05-07T14:46:24;4.00;;;2.63;;
25948;SDS011;13961;51.178;4.448;2023-05-07T14:48:50;4.22;;;2.90;;
25948;SDS011;13961;51.178;4.448;2023-05-07T14:51:16;4.13;;;2.30;;
25948;SDS011;13961;51.178;4.448;2023-05-07T14:53:42;4.93;;;2.53;;
25948;SDS011;13961;51.178;4.448;2023-05-07T14:56:08;5.78;;;2.42;;
25948;SDS011;13961;51.178;4.448;2023-05-07T14:58:33;4.45;;;2.70;;
25948;SDS011;13961;51.178;4.448;2023-05-07T15:01:00;4.55;;;2.50;;